Time;durP1;ratioP1;P1;durP2;ratioP2;P2;SDS_P1;SDS_P2;PMS_P1;PMS_P2;Temp;Humidity;BMP_temperature;BMP_pressure;BME280_temperature;BME280_humidity;BME280_pressure;Samples;Min_cycle;Max_cycle;Signal;HPM_P1;HPM_P2
2022/01/02 00:00:40;;;;;;;7.00;3.30;;;4.30;99.90;;;;;;4993122;28;20432;-69
2022/01/02 00:03:08;;;;;;;7.63;3.07;;;4.20;99.90;;;;;;4976591;28;20454;-69
2022/01/02 00:05:37;;;;;;;6.70;3.43;;;4.20;99.90;;;;;;4984196;28;20926;-69
2022/01/02 00:08:05;;;;;;;5.70;3.10;;;4.20;99.90;;;;;;4993875;28;20789;-69
2022/01/02 00:10:36;;;;;;;6.13;2.80;;;4.20;99.90;;;;;;4989630;28;20475;-69
2022/01/02 00:13:03;;;;;;;8.40;2.90;;;4.10;99.90;;;;;;4981084;28;20466;-69
2022/01/02 00:15:30;;;;;;;8.67;3.10;;;4.20;99.90;;;;;;4991625;28;20447;-69
2022/01/02 00:18:05;;;;;;;8.90;3.10;;;4.20;99.90;;;;;;4991252;28;20795;-69
2022/01/02 00:20:37;;;;;;;5.37;3.20;;;4.20;99.90;;;;;;4983487;28;20431;-69
2022/01/02 00:23:08;;;;;;;7.90;3.07;;;4.30;99.90;;;;;;4995961;28;20488;-69
2022/01/02 00:25:41;;;;;;;5.97;2.23;;;4.40;99.90;;;;;;4993305;28;20900;-69
2022/01/02 00:28:07;;;;;;;3.83;2.43;;;4.30;99.90;;;;;;4990470;28;20437;-69
2022/01/02 00:30:34;;;;;;;6.73;2.83;;;4.30;99.90;;;;;;4991596;28;20469;-69
2022/01/02 00:33:03;;;;;;;11.20;4.00;;;4.20;99.90;;;;;;4982689;28;20506;-69
2022/01/02 00:35:29;;;;;;;8.33;3.67;;;4.20;99.90;;;;;;4979287;28;20443;-69
2022/01/02 00:37:56;;;;;;;5.67;3.00;;;4.20;99.90;;;;;;4988469;28;20437;-69
2022/01/02 00:40:21;;;;;;;10.43;3.53;;;4.30;99.90;;;;;;4992266;28;20516;-69
2022/01/02 00:42:55;;;;;;;3.57;2.10;;;4.30;99.90;;;;;;4988891;28;20443;-69
2022/01/02 00:45:26;;;;;;;3.97;2.53;;;4.30;99.90;;;;;;4990676;28;20642;-69
2022/01/02 00:48:06;;;;;;;4.93;3.30;;;4.30;99.90;;;;;;4994371;28;20437;-69
2022/01/02 00:50:48;;;;;;;12.13;3.40;;;4.30;99.90;;;;;;4996331;28;20546;-69
2022/01/02 00:53:17;;;;;;;7.70;3.33;;;4.30;99.90;;;;;;4989383;28;20954;-69
2022/01/02 00:55:45;;;;;;;8.43;3.33;;;4.30;99.90;;;;;;4997994;28;20429;-69
2022/01/02 00:58:18;;;;;;;5.80;3.20;;;4.30;99.90;;;;;;4991325;28;20468;-69
2022/01/02 01:00:48;;;;;;;4.43;2.70;;;4.30;99.90;;;;;;4995411;28;20418;-69
2022/01/02 01:03:29;;;;;;;6.90;2.73;;;4.20;99.90;;;;;;4988462;28;20415;-69
2022/01/02 01:05:57;;;;;;;7.07;2.57;;;4.30;99.90;;;;;;4995359;28;20414;-69
2022/01/02 01:08:23;;;;;;;7.60;2.57;;;4.20;99.90;;;;;;4993380;28;20881;-69
2022/01/02 01:10:50;;;;;;;9.07;3.37;;;4.20;99.90;;;;;;4990413;28;20462;-69
2022/01/02 01:13:16;;;;;;;5.97;3.33;;;4.30;99.90;;;;;;4998815;28;20560;-68
2022/01/02 01:15:43;;;;;;;4.47;2.27;;;4.40;99.90;;;;;;4990229;28;20443;-69
2022/01/02 01:18:09;;;;;;;3.27;2.00;;;4.50;99.90;;;;;;4995643;28;20927;-69
2022/01/02 01:20:42;;;;;;;6.50;2.80;;;4.60;99.90;;;;;;4990277;28;20437;-69
2022/01/02 01:23:12;;;;;;;7.63;2.63;;;4.60;99.90;;;;;;4989365;28;20266;-69
2022/01/02 01:25:43;;;;;;;11.47;3.10;;;4.50;99.90;;;;;;4987616;28;20432;-69
2022/01/02 01:28:09;;;;;;;4.63;2.60;;;4.50;99.90;;;;;;4994538;28;20430;-69
2022/01/02 01:30:35;;;;;;;7.90;3.50;;;4.40;99.90;;;;;;4996821;28;20477;-69
2022/01/02 01:33:00;;;;;;;5.30;2.77;;;4.30;99.90;;;;;;4983271;28;20190;-69
2022/01/02 01:35:26;;;;;;;4.53;2.50;;;4.20;99.90;;;;;;4989090;28;20250;-70
2022/01/02 01:37:52;;;;;;;5.60;3.00;;;4.20;99.90;;;;;;4988361;28;20229;-69
2022/01/02 01:40:18;;;;;;;7.60;2.83;;;4.20;99.90;;;;;;4991890;28;20656;-69
2022/01/02 01:42:55;;;;;;;4.70;2.37;;;4.10;99.90;;;;;;4983187;28;20293;-69
2022/01/02 01:47:48;;;;;;;7.00;3.33;;;4.10;99.90;;;;;;4985463;28;20454;-69
2022/01/02 01:50:14;;;;;;;6.50;2.50;;;4.10;99.90;;;;;;4993700;28;20687;-69
2022/01/02 01:52:40;;;;;;;5.00;2.27;;;4.00;99.90;;;;;;4987474;28;20485;-69
2022/01/02 01:55:07;;;;;;;11.23;2.83;;;3.90;99.90;;;;;;4989474;28;20426;-69
2022/01/02 01:57:33;;;;;;;7.00;2.47;;;3.90;99.90;;;;;;4988540;28;20442;-69
2022/01/02 01:59:59;;;;;;;4.93;2.37;;;3.80;99.90;;;;;;4985563;28;20494;-69
2022/01/02 02:02:26;;;;;;;3.70;2.00;;;3.80;99.90;;;;;;4976686;28;20455;-69
2022/01/02 02:04:51;;;;;;;5.90;2.37;;;3.80;99.90;;;;;;4990827;28;20520;-69
2022/01/02 02:07:19;;;;;;;6.87;2.87;;;3.80;99.90;;;;;;4986380;28;20519;-69
2022/01/02 02:12:51;;;;;;;6.70;3.00;;;3.60;99.90;;;;;;4986359;28;20469;-69
2022/01/02 02:15:18;;;;;;;7.10;2.30;;;3.50;99.90;;;;;;4987090;28;20776;-69
2022/01/02 02:17:46;;;;;;;7.80;2.70;;;3.40;99.90;;;;;;4985908;28;20488;-69
2022/01/02 02:20:15;;;;;;;7.63;2.80;;;3.30;99.90;;;;;;4998065;28;20433;-69
2022/01/02 02:22:45;;;;;;;4.73;1.93;;;3.30;99.90;;;;;;4991867;28;20537;-69
2022/01/02 02:25:12;;;;;;;7.73;2.57;;;3.30;99.90;;;;;;4991218;28;20470;-69
2022/01/02 02:27:37;;;;;;;6.60;2.50;;;3.30;99.90;;;;;;4992064;28;20442;-69
2022/01/02 02:30:04;;;;;;;5.93;3.80;;;3.30;99.90;;;;;;4994583;28;20481;-69
2022/01/02 02:32:30;;;;;;;6.50;3.37;;;3.30;99.90;;;;;;4993146;28;20215;-69
2022/01/02 02:34:56;;;;;;;7.10;4.00;;;3.40;99.90;;;;;;4999004;28;20521;-69
2022/01/02 02:37:24;;;;;;;5.40;3.20;;;3.40;99.90;;;;;;4982029;28;20183;-69
2022/01/02 02:39:50;;;;;;;5.93;3.40;;;3.40;99.90;;;;;;4989963;28;20540;-69
2022/01/02 02:42:30;;;;;;;6.67;3.27;;;3.40;99.90;;;;;;4993847;28;20450;-69
2022/01/02 02:48:59;;;;;;;6.60;3.57;;;3.30;99.90;;;;;;4990846;28;20434;-69
2022/01/02 02:50:47;;;;;;;6.63;3.60;;;3.10;99.90;;;;;;4990908;28;20602;-69
2022/01/02 02:53:16;;;;;;;9.50;3.93;;;3.10;99.90;;;;;;4991912;28;20525;-69
2022/01/02 02:55:54;;;;;;;6.40;3.73;;;3.20;99.90;;;;;;4992251;28;20443;-69
2022/01/02 03:00:58;;;;;;;8.00;2.40;;;3.30;99.90;;;;;;4988903;28;20446;-69
2022/01/02 03:03:25;;;;;;;4.67;2.60;;;3.40;99.90;;;;;;4996464;28;20440;-69
2022/01/02 03:05:51;;;;;;;9.70;2.33;;;3.50;99.90;;;;;;4993630;28;20856;-69
2022/01/02 03:08:17;;;;;;;6.23;2.90;;;3.90;99.90;;;;;;4983149;28;20482;-69
2022/01/02 03:10:42;;;;;;;2.93;1.80;;;4.20;99.90;;;;;;4989310;28;20614;-69
2022/01/02 03:13:08;;;;;;;8.83;2.63;;;4.60;99.90;;;;;;4981786;28;20471;-69
2022/01/02 03:15:33;;;;;;;5.30;2.03;;;5.10;99.90;;;;;;4988683;28;20192;-69
2022/01/02 03:17:59;;;;;;;5.20;2.37;;;5.30;99.90;;;;;;4982953;28;20200;-69
2022/01/02 03:20:25;;;;;;;3.60;2.13;;;5.30;99.90;;;;;;4988274;28;20553;-69
2022/01/02 03:22:50;;;;;;;6.03;2.00;;;5.30;99.90;;;;;;4983882;28;20629;-69
2022/01/02 03:25:17;;;;;;;6.73;1.93;;;5.30;99.90;;;;;;4980863;28;20195;-69
2022/01/02 03:27:44;;;;;;;7.37;1.90;;;5.40;99.90;;;;;;4991135;28;20660;-69
2022/01/02 03:30:11;;;;;;;3.50;1.60;;;5.50;99.90;;;;;;4980728;28;20475;-69
2022/01/02 03:32:37;;;;;;;8.10;2.30;;;5.50;99.90;;;;;;4986902;28;20458;-69
2022/01/02 03:35:03;;;;;;;4.63;2.00;;;5.50;99.90;;;;;;4997178;28;20934;-69
2022/01/02 03:37:32;;;;;;;5.10;2.00;;;5.60;99.90;;;;;;4996039;28;20466;-69
2022/01/02 03:39:58;;;;;;;5.17;1.73;;;5.70;99.90;;;;;;4990920;28;20444;-69
2022/01/02 03:42:24;;;;;;;4.03;1.83;;;5.70;99.90;;;;;;4991702;28;20443;-69
2022/01/02 03:44:50;;;;;;;4.30;2.07;;;5.60;99.90;;;;;;4985368;28;20454;-69
2022/01/02 03:47:16;;;;;;;4.53;2.00;;;5.50;99.90;;;;;;4994617;28;20199;-69
2022/01/02 03:49:41;;;;;;;8.07;2.50;;;5.30;99.90;;;;;;4990214;28;20299;-69
2022/01/02 03:52:08;;;;;;;6.13;2.57;;;5.20;99.90;;;;;;4989121;28;20659;-69
2022/01/02 03:54:33;;;;;;;6.27;2.17;;;5.10;99.90;;;;;;4982476;28;20482;-69
2022/01/02 03:56:59;;;;;;;3.07;1.67;;;5.10;99.90;;;;;;4993161;28;20422;-68
2022/01/02 03:59:25;;;;;;;7.20;3.03;;;5.00;99.90;;;;;;4995089;28;20187;-69
2022/01/02 04:01:51;;;;;;;4.07;2.00;;;5.00;99.90;;;;;;4982380;28;20188;-69
2022/01/02 04:04:17;;;;;;;5.27;2.20;;;5.00;99.90;;;;;;4994375;28;20278;-69
2022/01/02 04:06:42;;;;;;;4.70;2.80;;;4.90;99.90;;;;;;4998213;28;20275;-69
2022/01/02 04:09:08;;;;;;;3.60;1.97;;;4.90;99.90;;;;;;4987116;28;20521;-69
2022/01/02 04:11:34;;;;;;;2.73;1.53;;;4.90;99.90;;;;;;4988359;28;20220;-69
2022/01/02 04:14:00;;;;;;;4.40;2.03;;;4.90;99.90;;;;;;4992292;28;20191;-69
2022/01/02 04:16:25;;;;;;;4.23;1.90;;;4.90;99.90;;;;;;4995237;28;20196;-69
2022/01/02 04:18:51;;;;;;;4.30;2.73;;;5.10;99.90;;;;;;4997845;28;20575;-69
2022/01/02 04:21:17;;;;;;;2.50;1.50;;;5.20;99.90;;;;;;4996786;28;20219;-69
2022/01/02 04:23:42;;;;;;;5.00;2.10;;;5.30;99.90;;;;;;4995464;28;20281;-69
2022/01/02 04:26:08;;;;;;;2.30;1.47;;;5.40;99.90;;;;;;4990625;28;20200;-69
2022/01/02 04:28:34;;;;;;;6.53;2.53;;;5.50;99.90;;;;;;4994437;28;20196;-69
2022/01/02 04:31:00;;;;;;;6.93;2.30;;;5.50;99.90;;;;;;4990192;28;20217;-69
2022/01/02 04:33:25;;;;;;;5.70;2.40;;;5.50;99.90;;;;;;5002191;28;20478;-69
2022/01/02 04:35:51;;;;;;;1.50;0.90;;;5.40;99.90;;;;;;4992521;28;20235;-69
2022/01/02 04:38:17;;;;;;;4.57;2.07;;;5.50;99.90;;;;;;4988554;28;20704;-69
2022/01/02 04:40:43;;;;;;;3.83;1.70;;;5.40;99.90;;;;;;4990794;28;20372;-69
2022/01/02 04:43:09;;;;;;;2.67;1.60;;;5.40;99.90;;;;;;4997826;28;20434;-69
2022/01/02 04:45:34;;;;;;;3.00;1.53;;;5.40;99.90;;;;;;4984375;28;20192;-69
2022/01/02 04:48:00;;;;;;;2.60;1.50;;;5.40;99.90;;;;;;4998722;28;20191;-69
2022/01/02 04:50:26;;;;;;;5.97;1.80;;;5.30;99.90;;;;;;4989927;28;20207;-69
2022/01/02 04:52:52;;;;;;;3.07;1.87;;;5.30;99.90;;;;;;4991011;28;20270;-69
2022/01/02 04:55:17;;;;;;;3.87;1.90;;;5.20;99.90;;;;;;4988929;28;20192;-69
2022/01/02 04:57:43;;;;;;;2.87;1.23;;;5.20;99.90;;;;;;4987915;28;20254;-69
2022/01/02 05:00:09;;;;;;;5.13;2.03;;;5.10;99.90;;;;;;4984773;28;20239;-69
2022/01/02 05:02:36;;;;;;;3.27;1.63;;;5.10;99.90;;;;;;4992751;28;20206;-69
2022/01/02 05:05:02;;;;;;;3.50;2.10;;;5.00;99.90;;;;;;4990499;28;20518;-69
2022/01/02 05:07:28;;;;;;;2.83;1.57;;;5.00;99.90;;;;;;4990503;28;20434;-69
2022/01/02 05:09:53;;;;;;;3.13;1.37;;;5.00;99.90;;;;;;4979893;28;20475;-69
2022/01/02 05:12:19;;;;;;;4.10;1.93;;;4.90;99.90;;;;;;4988466;28;20196;-69
2022/01/02 05:14:44;;;;;;;5.10;2.17;;;4.90;99.90;;;;;;4995205;28;20218;-69
2022/01/02 05:17:10;;;;;;;6.03;1.53;;;5.00;99.90;;;;;;4988562;28;20677;-69
2022/01/02 05:19:36;;;;;;;2.90;1.27;;;5.00;99.90;;;;;;4992216;28;20202;-69
2022/01/02 05:22:02;;;;;;;3.27;1.57;;;5.00;99.90;;;;;;4989338;28;20196;-69
2022/01/02 05:24:27;;;;;;;3.23;1.47;;;5.10;99.90;;;;;;4996010;28;20238;-69
2022/01/02 05:26:55;;;;;;;2.00;0.90;;;5.20;99.90;;;;;;4987216;28;20470;-69
2022/01/02 05:29:21;;;;;;;2.13;1.03;;;5.10;99.90;;;;;;5001961;28;20179;-69
2022/01/02 05:31:47;;;;;;;5.83;1.43;;;5.20;99.90;;;;;;4988330;28;20815;-69
2022/01/02 05:34:12;;;;;;;4.47;1.83;;;5.10;99.90;;;;;;4996623;28;20956;-69
2022/01/02 05:36:38;;;;;;;2.47;1.40;;;5.20;99.90;;;;;;4991059;28;20195;-69
2022/01/02 05:39:04;;;;;;;2.63;1.43;;;5.40;99.90;;;;;;4997724;28;20218;-69
2022/01/02 05:41:32;;;;;;;3.87;1.73;;;5.40;99.90;;;;;;4984888;28;20203;-69
2022/01/02 05:43:57;;;;;;;3.10;1.50;;;5.50;99.90;;;;;;4991103;28;20942;-69
2022/01/02 05:46:23;;;;;;;4.57;1.73;;;5.50;99.90;;;;;;4986826;28;20438;-69
2022/01/02 05:48:50;;;;;;;3.70;1.50;;;5.60;99.90;;;;;;5000522;28;20194;-69
2022/01/02 05:51:16;;;;;;;4.40;1.73;;;5.70;99.90;;;;;;4991164;28;20836;-69
2022/01/02 05:53:42;;;;;;;2.17;1.20;;;5.90;99.90;;;;;;4991764;28;20981;-69
2022/01/02 05:56:08;;;;;;;3.00;1.60;;;6.00;99.90;;;;;;4984548;28;20443;-69
2022/01/02 05:58:33;;;;;;;2.93;1.20;;;6.10;99.90;;;;;;4988476;28;20489;-69
2022/01/02 06:00:59;;;;;;;3.70;1.40;;;6.20;99.90;;;;;;4992067;28;20191;-69
2022/01/02 06:03:25;;;;;;;3.70;1.30;;;6.20;99.90;;;;;;4991757;28;20199;-69
2022/01/02 06:05:51;;;;;;;3.93;1.97;;;6.30;99.90;;;;;;4990723;28;20233;-69
2022/01/02 06:08:16;;;;;;;7.70;1.87;;;6.30;99.90;;;;;;4991450;28;20610;-69
2022/01/02 06:10:42;;;;;;;2.83;1.63;;;6.30;99.90;;;;;;4992612;28;20644;-69
2022/01/02 06:13:08;;;;;;;2.90;1.50;;;6.30;99.90;;;;;;4990239;28;20199;-69
2022/01/02 06:15:33;;;;;;;5.63;2.77;;;6.50;99.90;;;;;;4992063;28;20195;-69
2022/01/02 06:17:59;;;;;;;4.07;2.07;;;6.50;99.90;;;;;;4981177;28;20585;-69
2022/01/02 06:20:25;;;;;;;5.53;2.00;;;6.50;99.90;;;;;;4996977;28;20655;-69
2022/01/02 06:22:53;;;;;;;4.63;2.10;;;6.50;99.90;;;;;;4983755;28;20873;-69
2022/01/02 06:25:19;;;;;;;5.27;2.03;;;6.60;99.90;;;;;;4995971;28;20187;-69
2022/01/02 06:27:44;;;;;;;3.30;1.77;;;6.60;99.90;;;;;;4985890;28;20441;-69
2022/01/02 06:30:10;;;;;;;7.40;2.50;;;6.70;99.90;;;;;;4989475;28;20215;-70
2022/01/02 06:32:36;;;;;;;3.50;1.83;;;6.80;99.90;;;;;;4989860;28;20266;-69
2022/01/02 06:35:02;;;;;;;9.33;2.03;;;6.70;99.90;;;;;;4990212;28;20403;-69
2022/01/02 06:37:27;;;;;;;5.30;2.63;;;6.70;99.90;;;;;;4989663;28;20195;-68
2022/01/02 06:39:53;;;;;;;2.43;1.47;;;6.60;99.90;;;;;;4989986;28;20215;-69
2022/01/02 06:42:18;;;;;;;3.83;1.50;;;6.60;99.90;;;;;;4985210;28;20211;-69
2022/01/02 06:44:44;;;;;;;5.57;1.93;;;6.70;99.90;;;;;;4993345;28;20651;-69
2022/01/02 06:47:10;;;;;;;6.70;2.03;;;6.60;99.90;;;;;;4991057;28;20234;-69
2022/01/02 06:49:35;;;;;;;4.90;2.00;;;6.70;99.90;;;;;;4996112;28;20203;-69
2022/01/02 06:52:01;;;;;;;8.27;2.97;;;6.80;99.90;;;;;;4992112;28;20223;-69
2022/01/02 06:54:27;;;;;;;4.73;2.13;;;6.80;99.90;;;;;;4989270;28;20227;-69
2022/01/02 06:56:52;;;;;;;5.00;2.53;;;6.80;99.90;;;;;;4989163;28;20620;-69
2022/01/02 06:59:18;;;;;;;3.90;1.70;;;6.80;99.90;;;;;;4988544;28;20605;-69
2022/01/02 07:01:44;;;;;;;6.67;1.90;;;6.70;99.90;;;;;;4980869;28;20227;-69
2022/01/02 07:04:10;;;;;;;3.83;1.70;;;6.70;99.90;;;;;;4983222;28;20192;-70
2022/01/02 07:06:35;;;;;;;3.70;1.93;;;6.70;99.90;;;;;;4994296;28;20442;-70
2022/01/02 07:09:01;;;;;;;7.23;1.53;;;6.80;99.90;;;;;;4992929;28;20184;-70
2022/01/02 07:11:27;;;;;;;7.87;2.00;;;6.80;99.90;;;;;;4988087;28;20219;-70
2022/01/02 07:13:53;;;;;;;3.17;1.30;;;6.90;99.90;;;;;;4994123;28;20381;-70
2022/01/02 07:16:18;;;;;;;3.30;1.43;;;7.00;99.90;;;;;;4993439;28;20191;-70
2022/01/02 07:18:44;;;;;;;4.57;1.83;;;7.10;99.90;;;;;;4992703;28;20587;-70
2022/01/02 07:21:09;;;;;;;3.03;1.17;;;7.10;99.90;;;;;;5000015;28;20202;-70
2022/01/02 07:23:35;;;;;;;2.20;1.37;;;7.10;99.90;;;;;;4996945;28;20227;-70
2022/01/02 07:26:02;;;;;;;2.30;1.30;;;7.10;99.90;;;;;;4995561;28;20299;-70
2022/01/02 07:28:29;;;;;;;4.37;1.70;;;7.10;99.90;;;;;;4984469;28;20210;-70
2022/01/02 07:30:55;;;;;;;4.53;1.40;;;7.10;99.90;;;;;;4990681;28;20953;-70
2022/01/02 07:33:22;;;;;;;3.20;1.03;;;7.10;99.90;;;;;;4991083;28;20513;-70
2022/01/02 07:35:47;;;;;;;3.30;1.47;;;7.00;99.90;;;;;;4985485;28;20558;-70
2022/01/02 07:38:13;;;;;;;2.47;1.13;;;7.10;99.90;;;;;;4987914;28;20538;-70
2022/01/02 07:40:38;;;;;;;2.30;1.10;;;7.10;99.90;;;;;;4992046;28;20622;-70
2022/01/02 07:43:04;;;;;;;4.83;1.63;;;7.20;99.90;;;;;;4993730;28;20450;-70
2022/01/02 07:45:30;;;;;;;3.93;1.47;;;7.20;99.90;;;;;;4991127;28;20196;-70
2022/01/02 07:47:55;;;;;;;2.80;1.50;;;7.20;99.90;;;;;;4998316;28;20233;-70
2022/01/02 07:50:22;;;;;;;5.03;1.53;;;7.20;99.90;;;;;;4996849;28;20278;-70
2022/01/02 07:52:48;;;;;;;2.00;1.20;;;7.50;99.90;;;;;;4989459;28;20194;-70
2022/01/02 07:55:14;;;;;;;2.73;1.30;;;7.30;99.90;;;;;;4992462;28;20442;-70
2022/01/02 07:57:40;;;;;;;3.80;1.07;;;7.30;99.90;;;;;;4994051;28;20804;-70
2022/01/02 08:00:06;;;;;;;2.43;1.10;;;7.20;99.90;;;;;;4997413;28;20443;-70
2022/01/02 08:02:32;;;;;;;2.57;1.23;;;7.20;99.90;;;;;;4980997;28;20772;-70
2022/01/02 08:04:57;;;;;;;6.60;2.03;;;7.20;99.90;;;;;;4994752;28;20418;-70
2022/01/02 08:07:23;;;;;;;4.50;1.80;;;7.30;99.90;;;;;;4988495;28;20610;-70
2022/01/02 08:09:49;;;;;;;3.23;1.27;;;7.30;99.90;;;;;;4986964;28;20751;-70
2022/01/02 08:12:14;;;;;;;4.63;1.60;;;7.30;99.90;;;;;;4990143;28;20541;-70
2022/01/02 08:14:40;;;;;;;4.00;1.53;;;7.30;99.90;;;;;;4989912;28;20232;-70
2022/01/02 08:17:05;;;;;;;3.87;1.80;;;7.30;99.90;;;;;;4993406;28;20522;-70
2022/01/02 08:19:31;;;;;;;5.10;1.43;;;7.30;99.90;;;;;;4991824;28;20195;-70
2022/01/02 08:21:57;;;;;;;2.80;1.30;;;7.40;99.90;;;;;;4990845;28;20214;-70
2022/01/02 08:24:22;;;;;;;3.17;1.63;;;7.50;99.90;;;;;;4993084;28;20275;-70
2022/01/02 08:26:48;;;;;;;4.10;2.40;;;7.60;99.90;;;;;;4994377;28;20196;-70
2022/01/02 08:29:13;;;;;;;3.33;2.23;;;7.60;99.90;;;;;;4994113;28;20744;-70
2022/01/02 08:31:40;;;;;;;3.47;1.70;;;7.60;99.90;;;;;;4993489;28;20249;-70
2022/01/02 08:34:06;;;;;;;4.00;2.37;;;7.70;99.90;;;;;;4995016;28;20184;-70
2022/01/02 08:36:31;;;;;;;4.80;2.30;;;7.70;99.90;;;;;;4993832;28;20442;-70
2022/01/02 08:38:57;;;;;;;5.10;1.90;;;7.90;99.90;;;;;;4988978;28;20188;-70
2022/01/02 08:41:23;;;;;;;4.50;1.27;;;7.90;99.90;;;;;;4994507;28;20214;-70
2022/01/02 08:43:49;;;;;;;4.20;1.70;;;8.00;99.90;;;;;;4997972;28;20227;-70
2022/01/02 08:46:14;;;;;;;2.93;1.20;;;8.00;99.90;;;;;;4993517;28;20196;-70
2022/01/02 08:48:40;;;;;;;3.27;1.60;;;8.10;99.90;;;;;;4999053;28;20233;-70
2022/01/02 08:51:06;;;;;;;2.07;1.03;;;8.20;99.90;;;;;;4995830;28;20963;-70
2022/01/02 08:53:34;;;;;;;2.43;1.07;;;8.30;99.90;;;;;;4999484;28;20218;-70
2022/01/02 08:56:00;;;;;;;3.73;1.43;;;8.40;99.90;;;;;;4994070;28;20426;-70
2022/01/02 08:58:26;;;;;;;4.30;1.20;;;8.60;99.90;;;;;;4982639;28;20485;-70
2022/01/02 09:00:52;;;;;;;4.47;1.87;;;8.60;99.90;;;;;;4989696;28;20438;-70
2022/01/02 09:03:17;;;;;;;2.23;1.33;;;8.70;99.90;;;;;;4992428;28;20202;-71
2022/01/02 09:05:43;;;;;;;2.77;1.40;;;8.70;99.90;;;;;;4996997;28;20907;-71
2022/01/02 09:08:09;;;;;;;2.60;1.23;;;8.90;99.90;;;;;;4988976;28;20192;-71
2022/01/02 09:10:34;;;;;;;4.17;2.00;;;9.10;99.90;;;;;;4997956;28;20298;-71
2022/01/02 09:13:00;;;;;;;5.67;1.87;;;9.30;99.90;;;;;;4992567;28;20669;-71
2022/01/02 09:15:26;;;;;;;2.77;1.27;;;9.50;99.90;;;;;;4987859;28;20302;-71
2022/01/02 09:17:51;;;;;;;2.63;0.90;;;9.70;99.90;;;;;;4984727;28;20231;-71
2022/01/02 09:20:17;;;;;;;3.10;1.10;;;9.90;99.80;;;;;;4987977;28;20888;-70
2022/01/02 09:22:43;;;;;;;3.07;1.37;;;10.20;98.70;;;;;;4991226;28;20434;-70
2022/01/02 09:25:09;;;;;;;4.60;1.30;;;10.30;97.60;;;;;;4991539;28;20450;-71
2022/01/02 09:27:36;;;;;;;4.57;1.67;;;10.50;97.90;;;;;;4989919;28;20932;-71
2022/01/02 09:30:06;;;;;;;2.27;1.23;;;10.50;97.50;;;;;;4989012;28;20482;-71
2022/01/02 09:32:34;;;;;;;1.57;0.70;;;10.60;96.90;;;;;;4985119;28;20438;-71
2022/01/02 09:35:05;;;;;;;1.83;0.80;;;10.60;96.70;;;;;;4996548;28;20430;-71
2022/01/02 09:37:30;;;;;;;1.40;0.60;;;10.70;95.90;;;;;;4973956;28;20463;-70
2022/01/02 09:39:56;;;;;;;2.13;0.80;;;10.70;95.80;;;;;;4985548;28;20490;-70
2022/01/02 09:42:22;;;;;;;2.27;1.17;;;10.60;95.80;;;;;;4987475;28;20234;-71
2022/01/02 09:44:47;;;;;;;2.17;1.07;;;10.60;95.90;;;;;;4991743;28;20187;-70
2022/01/02 09:47:18;;;;;;;1.57;0.77;;;10.50;96.00;;;;;;4994349;28;20206;-70
2022/01/02 09:49:46;;;;;;;1.60;0.73;;;10.50;95.80;;;;;;4989329;28;20189;-70
2022/01/02 09:52:11;;;;;;;2.13;0.73;;;10.50;95.70;;;;;;4990342;28;20442;-71
2022/01/02 09:54:37;;;;;;;2.47;0.90;;;10.60;95.60;;;;;;4989891;28;20714;-70
2022/01/02 09:57:04;;;;;;;2.03;0.83;;;10.60;95.40;;;;;;4990809;28;20188;-71
2022/01/02 09:59:29;;;;;;;3.43;1.03;;;10.70;95.20;;;;;;4988826;28;20196;-71
2022/01/02 10:01:56;;;;;;;1.73;0.80;;;10.70;95.00;;;;;;4993205;28;20864;-71
2022/01/02 10:04:32;;;;;;;2.90;0.73;;;10.80;94.90;;;;;;5003209;28;20187;-71
2022/01/02 10:06:58;;;;;;;1.90;0.60;;;11.00;94.10;;;;;;4985016;28;20528;-71
2022/01/02 10:09:38;;;;;;;2.00;0.60;;;11.10;93.70;;;;;;4984725;28;20746;-71
2022/01/02 10:12:39;;;;;;;1.20;0.50;;;11.30;93.90;;;;;;4984178;28;20194;-70
2022/01/02 10:15:23;;;;;;;1.60;0.77;;;11.30;94.10;;;;;;4984795;28;20524;-71
2022/01/02 10:18:08;;;;;;;2.20;1.10;;;11.30;94.00;;;;;;4982881;28;20903;-71
2022/01/02 10:20:45;;;;;;;2.37;0.60;;;11.40;93.70;;;;;;4990268;28;20463;-71
2022/01/02 10:23:14;;;;;;;1.90;0.80;;;11.30;94.00;;;;;;4984908;28;20414;-70
2022/01/02 10:25:39;;;;;;;1.53;0.60;;;11.20;94.20;;;;;;4980598;28;20798;-71
2022/01/02 10:28:18;;;;;;;1.60;0.80;;;11.10;94.00;;;;;;4982302;28;20483;-71
2022/01/02 10:30:48;;;;;;;1.33;0.60;;;11.00;94.60;;;;;;4985190;28;20230;-71
2022/01/02 10:33:14;;;;;;;1.40;0.70;;;11.00;94.30;;;;;;4994065;28;20507;-71
2022/01/02 10:35:43;;;;;;;1.50;0.70;;;11.00;93.90;;;;;;4990304;28;20434;-71
2022/01/02 10:38:16;;;;;;;4.27;1.00;;;11.00;94.30;;;;;;4985207;28;20437;-71
2022/01/02 10:40:43;;;;;;;2.17;0.90;;;10.80;95.10;;;;;;4987527;28;20784;-71
2022/01/02 10:43:27;;;;;;;1.77;0.83;;;10.80;95.00;;;;;;4985368;28;20490;-73
2022/01/02 10:45:55;;;;;;;1.53;0.60;;;10.80;94.60;;;;;;4984734;28;21011;-71
2022/01/02 10:48:39;;;;;;;1.80;0.97;;;10.70;94.60;;;;;;4979507;28;20435;-71
2022/01/02 10:51:09;;;;;;;1.93;0.87;;;10.60;95.00;;;;;;4985036;28;20477;-71
2022/01/02 10:53:38;;;;;;;2.23;1.00;;;10.60;95.10;;;;;;4984648;28;20442;-70
2022/01/02 10:56:05;;;;;;;2.07;0.93;;;10.60;95.00;;;;;;4981730;28;20462;-70
2022/01/02 10:58:33;;;;;;;3.10;1.20;;;10.50;95.30;;;;;;4982012;28;20435;-70
2022/01/02 11:01:05;;;;;;;5.57;2.00;;;10.60;95.30;;;;;;4982451;28;20455;-70
2022/01/02 11:03:31;;;;;;;3.40;1.47;;;10.60;95.30;;;;;;4980010;28;20466;-70
2022/01/02 11:06:08;;;;;;;3.00;1.50;;;10.60;95.00;;;;;;4983095;28;20534;-69
2022/01/02 11:08:35;;;;;;;2.70;1.40;;;10.50;95.50;;;;;;4984398;28;20448;-70
2022/01/02 11:11:02;;;;;;;5.23;1.60;;;10.60;95.20;;;;;;4986982;28;20478;-70
2022/01/02 11:13:28;;;;;;;3.83;1.40;;;10.60;95.10;;;;;;4985092;28;20565;-70
2022/01/02 11:15:54;;;;;;;2.40;0.97;;;10.60;94.70;;;;;;4982623;28;20553;-72
2022/01/02 11:18:21;;;;;;;1.60;0.80;;;10.60;95.00;;;;;;4982394;28;20451;-70
2022/01/02 11:20:47;;;;;;;2.43;1.20;;;10.60;94.80;;;;;;4983828;28;20478;-70
2022/01/02 11:23:25;;;;;;;2.03;1.13;;;10.60;94.70;;;;;;4986574;28;20456;-70
2022/01/02 11:26:18;;;;;;;2.30;0.90;;;10.60;94.70;;;;;;4989336;28;20414;-70
2022/01/02 11:28:50;;;;;;;2.23;0.73;;;10.60;94.90;;;;;;4996808;28;20462;-70
2022/01/02 11:31:34;;;;;;;2.97;1.10;;;10.70;94.90;;;;;;4982794;28;20479;-70
2022/01/02 11:34:00;;;;;;;1.43;0.90;;;10.70;94.90;;;;;;4988452;28;20429;-71
2022/01/02 11:36:31;;;;;;;1.97;0.90;;;10.70;95.00;;;;;;4982261;28;20880;-71
2022/01/02 11:38:57;;;;;;;2.47;1.37;;;10.70;95.10;;;;;;4990118;28;20991;-71
2022/01/02 11:41:40;;;;;;;2.30;0.90;;;10.70;94.70;;;;;;4990467;28;20456;-71
2022/01/02 11:44:10;;;;;;;2.60;1.07;;;10.70;94.70;;;;;;4985891;28;20625;-70
2022/01/02 11:46:40;;;;;;;3.10;1.13;;;10.70;94.80;;;;;;4985888;28;20443;-71
2022/01/02 11:49:19;;;;;;;1.77;1.00;;;10.70;94.50;;;;;;4981176;28;20443;-71
2022/01/02 11:51:47;;;;;;;2.40;1.00;;;10.70;94.60;;;;;;4988740;28;20573;-70
2022/01/02 11:54:40;;;;;;;1.87;1.07;;;10.70;94.30;;;;;;4993154;28;20922;-71
2022/01/02 11:57:14;;;;;;;2.27;1.23;;;10.90;93.30;;;;;;4989400;28;20471;-71
2022/01/02 11:59:43;;;;;;;5.63;1.27;;;11.00;93.60;;;;;;4993585;28;20533;-70
2022/01/02 12:02:26;;;;;;;2.47;1.30;;;11.00;93.90;;;;;;4995889;28;20466;-70
2022/01/02 12:05:18;;;;;;;2.30;1.30;;;11.20;93.20;;;;;;4983149;28;20930;-70
2022/01/02 12:07:55;;;;;;;2.60;1.27;;;11.20;93.30;;;;;;4989699;28;20862;-70
2022/01/02 12:10:31;;;;;;;2.97;1.40;;;11.30;93.40;;;;;;4990880;28;20485;-70
2022/01/02 12:12:57;;;;;;;3.50;1.20;;;11.50;93.30;;;;;;4981489;28;20534;-71
2022/01/02 12:15:24;;;;;;;4.67;1.00;;;11.70;93.10;;;;;;4990831;28;20931;-70
2022/01/02 12:18:10;;;;;;;1.83;0.73;;;12.00;92.90;;;;;;4993627;28;20439;-71
2022/01/02 12:20:57;;;;;;;3.53;0.90;;;12.10;92.50;;;;;;4989570;28;20470;-71
2022/01/02 12:23:40;;;;;;;1.93;1.00;;;12.30;92.10;;;;;;4997131;28;20436;-71
2022/01/02 12:26:35;;;;;;;1.90;0.90;;;12.30;92.40;;;;;;4991784;28;20440;-70
2022/01/02 12:29:06;;;;;;;2.30;0.77;;;12.40;91.20;;;;;;4983309;28;20439;-70
2022/01/02 12:31:43;;;;;;;1.57;0.80;;;12.50;91.30;;;;;;4988782;28;20557;-70
2022/01/02 12:34:20;;;;;;;2.00;0.73;;;12.60;91.50;;;;;;4993991;28;20879;-70
2022/01/02 12:36:48;;;;;;;2.07;0.97;;;12.60;91.30;;;;;;4990752;28;20454;-70
2022/01/02 12:39:25;;;;;;;1.70;0.73;;;12.60;91.50;;;;;;4997193;28;20479;-71
2022/01/02 12:41:51;;;;;;;5.13;0.70;;;12.60;91.80;;;;;;4995103;28;20450;-70
2022/01/02 12:44:28;;;;;;;1.60;0.80;;;12.60;91.60;;;;;;4989984;28;20486;-70
2022/01/02 12:46:58;;;;;;;3.90;0.80;;;12.60;91.40;;;;;;4993669;28;20190;-71
2022/01/02 12:49:30;;;;;;;3.27;0.80;;;12.70;91.50;;;;;;4983862;28;20438;-71
2022/01/02 12:51:57;;;;;;;2.47;0.87;;;12.70;91.00;;;;;;4987815;28;20477;-70
2022/01/02 12:54:30;;;;;;;3.57;1.00;;;12.80;90.30;;;;;;4988774;28;20438;-71
2022/01/02 12:56:59;;;;;;;1.88;0.82;;;12.70;90.20;;;;;;4992148;28;20435;-71
2022/01/02 12:59:31;;;;;;;2.30;0.90;;;12.80;90.10;;;;;;4981456;28;20177;-71
2022/01/02 13:02:00;;;;;;;20.53;0.90;;;12.80;90.10;;;;;;4987932;28;20425;-71
2022/01/02 13:04:32;;;;;;;4.40;1.20;;;12.80;90.10;;;;;;4990254;28;20883;-71
2022/01/02 13:07:00;;;;;;;1.70;0.70;;;12.80;90.20;;;;;;4992509;28;20518;-70
2022/01/02 13:09:40;;;;;;;3.00;1.17;;;12.80;90.10;;;;;;4986210;28;20552;-71